Time;durP1;ratioP1;P1;durP2;ratioP2;P2;SDS_P1;SDS_P2;PMS_P1;PMS_P2;Temp;Humidity;BMP_temperature;BMP_pressure;BME280_temperature;BME280_humidity;BME280_pressure;Samples;Min_cycle;Max_cycle;Signal;HPM_P1;HPM_P2
2024/04/01 00:00:08;;;;;;;1.57;0.60;;;12.20;99.90;;;;;;5059655;28;20715;-69
2024/04/01 00:02:39;;;;;;;0.80;0.63;;;12.20;99.90;;;;;;5059769;28;20229;-70
2024/04/01 00:05:06;;;;;;;0.50;0.40;;;12.10;99.90;;;;;;5058430;28;20469;-69
2024/04/01 00:07:31;;;;;;;1.40;0.60;;;12.30;99.90;;;;;;5056673;28;20231;-71
2024/04/01 00:09:57;;;;;;;4.30;0.80;;;12.40;99.90;;;;;;5060362;28;20493;-70
2024/04/01 00:12:23;;;;;;;1.07;0.60;;;12.40;99.90;;;;;;5055637;28;20219;-71
2024/04/01 00:14:48;;;;;;;2.50;0.50;;;12.50;99.90;;;;;;5058476;28;20214;-70
2024/04/01 00:17:14;;;;;;;0.50;0.50;;;12.60;99.90;;;;;;5055921;28;20211;-69
2024/04/01 00:19:40;;;;;;;2.90;0.53;;;12.60;99.90;;;;;;5059873;28;20229;-71
2024/04/01 00:22:05;;;;;;;0.80;0.60;;;12.60;99.90;;;;;;5045883;28;20229;-70
2024/04/01 00:24:31;;;;;;;0.70;0.50;;;12.60;99.90;;;;;;5039362;28;20231;-69
2024/04/01 00:26:56;;;;;;;0.50;0.50;;;12.60;99.90;;;;;;5059496;28;20226;-69
2024/04/01 00:29:22;;;;;;;0.83;0.50;;;12.70;99.90;;;;;;5056283;28;20221;-69
2024/04/01 00:31:47;;;;;;;0.90;0.50;;;12.70;99.90;;;;;;5059434;28;20223;-70
2024/04/01 00:34:13;;;;;;;1.17;0.53;;;12.70;99.90;;;;;;5056969;28;20211;-69
2024/04/01 00:36:39;;;;;;;0.70;0.50;;;12.70;99.90;;;;;;5057914;28;20300;-70
2024/04/01 00:39:04;;;;;;;1.53;0.60;;;12.70;99.90;;;;;;5059526;28;20568;-69
2024/04/01 00:41:30;;;;;;;3.47;0.70;;;12.70;99.90;;;;;;5055547;28;20215;-71
2024/04/01 00:43:56;;;;;;;0.80;0.50;;;12.70;99.90;;;;;;5058276;28;20246;-69
2024/04/01 00:46:22;;;;;;;0.40;0.40;;;12.70;99.90;;;;;;5057843;28;20222;-71
2024/04/01 00:48:49;;;;;;;0.70;0.70;;;12.80;99.90;;;;;;5059494;28;20227;-70
2024/04/01 00:51:17;;;;;;;0.63;0.47;;;12.80;99.90;;;;;;5056590;28;20219;-70
2024/04/01 00:53:44;;;;;;;0.93;0.40;;;12.80;99.90;;;;;;5058681;28;20480;-71
2024/04/01 00:56:11;;;;;;;1.27;0.80;;;12.80;99.90;;;;;;5060791;28;20522;-70
2024/04/01 00:58:38;;;;;;;1.10;0.80;;;12.60;99.90;;;;;;5058766;28;20469;-69
2024/04/01 01:01:04;;;;;;;2.10;0.53;;;12.50;99.90;;;;;;5058512;28;20448;-71
2024/04/01 01:03:30;;;;;;;0.80;0.80;;;12.50;99.90;;;;;;5039482;28;20443;-70
2024/04/01 01:05:55;;;;;;;0.50;0.47;;;12.60;99.90;;;;;;5057575;28;21022;-69
2024/04/01 01:08:21;;;;;;;1.13;0.67;;;12.60;99.90;;;;;;5039949;28;20211;-70
2024/04/01 01:10:47;;;;;;;0.50;0.50;;;12.70;99.90;;;;;;5061398;28;20306;-70
2024/04/01 01:13:15;;;;;;;0.97;0.70;;;12.70;99.90;;;;;;5056785;28;20219;-71
2024/04/01 01:15:41;;;;;;;0.50;0.50;;;12.70;99.90;;;;;;5060061;28;20314;-69
2024/04/01 01:18:06;;;;;;;0.80;0.80;;;12.70;99.90;;;;;;5054982;28;20533;-69
2024/04/01 01:20:32;;;;;;;0.90;0.60;;;12.70;99.90;;;;;;5038009;28;20231;-71
2024/04/01 01:22:58;;;;;;;0.50;0.50;;;12.70;99.90;;;;;;5037801;28;20794;-70
2024/04/01 01:25:23;;;;;;;1.07;0.80;;;12.70;99.90;;;;;;5055796;28;20273;-71
2024/04/01 01:27:49;;;;;;;0.63;0.43;;;12.70;99.90;;;;;;5058273;28;20612;-69
2024/04/01 01:30:15;;;;;;;0.57;0.57;;;12.60;99.90;;;;;;5055045;28;20208;-71
2024/04/01 01:32:48;;;;;;;2.10;0.60;;;12.60;99.90;;;;;;5041214;28;20685;-70
2024/04/01 01:35:22;;;;;;;0.53;0.50;;;12.70;99.90;;;;;;5053925;28;20345;-71
2024/04/01 01:37:52;;;;;;;1.20;0.90;;;12.70;99.90;;;;;;5061241;28;20452;-67
2024/04/01 01:40:18;;;;;;;0.70;0.57;;;12.60;99.90;;;;;;5036140;28;21098;-70
2024/04/01 01:42:44;;;;;;;0.80;0.57;;;12.60;99.90;;;;;;5058918;28;20507;-71
2024/04/01 01:45:10;;;;;;;0.50;0.40;;;12.60;99.90;;;;;;5060099;28;20482;-70
2024/04/01 01:47:37;;;;;;;1.00;0.83;;;12.60;99.90;;;;;;5039294;28;20458;-71
2024/04/01 01:50:04;;;;;;;1.13;1.00;;;12.60;99.90;;;;;;5041973;28;20457;-70
2024/04/01 01:52:30;;;;;;;0.80;0.80;;;12.60;99.90;;;;;;5056326;28;21035;-70
2024/04/01 01:54:56;;;;;;;0.70;0.70;;;12.60;99.90;;;;;;5057567;28;20552;-70
2024/04/01 01:57:22;;;;;;;0.77;0.77;;;12.60;99.90;;;;;;5056847;28;20203;-71
2024/04/01 01:59:48;;;;;;;0.90;0.90;;;12.60;99.90;;;;;;5060215;28;20259;-69
2024/04/01 02:02:15;;;;;;;0.50;0.40;;;12.60;99.90;;;;;;5051491;28;20489;-70
2024/04/01 02:04:40;;;;;;;0.50;0.50;;;12.60;99.90;;;;;;5058112;28;20227;-69
2024/04/01 02:07:06;;;;;;;0.70;0.67;;;12.60;99.90;;;;;;5058024;28;20473;-71
2024/04/01 02:09:33;;;;;;;0.40;0.40;;;12.60;99.90;;;;;;5053515;28;20280;-70
2024/04/01 02:12:00;;;;;;;0.73;0.73;;;12.50;99.90;;;;;;5057867;28;20552;-71
2024/04/01 02:14:26;;;;;;;0.70;0.70;;;12.50;99.90;;;;;;5049914;28;20454;-71
2024/04/01 02:16:51;;;;;;;0.57;0.57;;;12.50;99.90;;;;;;5057770;28;20469;-70
2024/04/01 02:19:17;;;;;;;0.60;0.53;;;12.50;99.90;;;;;;5051967;28;20465;-70
2024/04/01 02:21:46;;;;;;;0.60;0.60;;;12.50;99.90;;;;;;5057817;28;20704;-71
2024/04/01 02:24:17;;;;;;;0.80;0.50;;;12.50;99.90;;;;;;5057814;28;20212;-71
2024/04/01 02:26:44;;;;;;;1.10;0.70;;;12.40;99.90;;;;;;5058422;28;20461;-70
2024/04/01 02:29:10;;;;;;;0.70;0.60;;;12.30;99.90;;;;;;5057751;28;20462;-70
2024/04/01 02:31:36;;;;;;;0.70;0.70;;;12.40;99.90;;;;;;5055258;28;20466;-71
2024/04/01 02:34:02;;;;;;;0.40;0.40;;;12.40;99.90;;;;;;5063858;28;20345;-71
2024/04/01 02:36:28;;;;;;;0.80;0.60;;;12.40;99.90;;;;;;5044238;28;20535;-70
2024/04/01 02:38:54;;;;;;;2.20;0.70;;;12.40;99.90;;;;;;5058111;28;20227;-70
2024/04/01 02:41:20;;;;;;;0.60;0.50;;;12.40;99.90;;;;;;5053503;28;20474;-70
2024/04/01 02:43:46;;;;;;;0.63;0.63;;;12.40;99.90;;;;;;5055906;28;20290;-70
2024/04/01 02:46:12;;;;;;;1.43;0.90;;;12.30;99.90;;;;;;5059850;28;20215;-70
2024/04/01 02:48:38;;;;;;;1.17;0.77;;;12.20;99.90;;;;;;5054632;28;20860;-70
2024/04/01 02:51:04;;;;;;;1.10;0.80;;;12.20;99.90;;;;;;5055866;28;20464;-71
2024/04/01 02:53:29;;;;;;;0.93;0.77;;;12.30;99.90;;;;;;5052691;28;20215;-70
2024/04/01 02:55:55;;;;;;;0.93;0.80;;;12.30;99.90;;;;;;5057563;28;20469;-71
2024/04/01 02:58:21;;;;;;;1.87;1.00;;;12.30;99.90;;;;;;5054012;28;20321;-70
2024/04/01 03:00:47;;;;;;;0.70;0.70;;;12.30;99.90;;;;;;5056139;28;20518;-71
2024/04/01 03:03:13;;;;;;;0.50;0.50;;;12.20;99.90;;;;;;5041991;28;20404;-71
2024/04/01 03:05:39;;;;;;;0.43;0.43;;;12.20;99.90;;;;;;5058604;28;20219;-70
2024/04/01 03:08:06;;;;;;;1.23;0.70;;;12.20;99.90;;;;;;5059172;28;20211;-71
2024/04/01 03:10:33;;;;;;;0.60;0.40;;;12.20;99.90;;;;;;5056619;28;20991;-70
2024/04/01 03:12:59;;;;;;;3.10;0.83;;;12.20;99.90;;;;;;5059214;28;20499;-71
2024/04/01 03:15:25;;;;;;;2.80;0.80;;;12.20;99.90;;;;;;5054514;28;20462;-71
2024/04/01 03:17:50;;;;;;;0.67;0.67;;;12.20;99.90;;;;;;5056811;28;20461;-71
2024/04/01 03:20:18;;;;;;;0.80;0.80;;;12.10;99.90;;;;;;5053761;28;20242;-71
2024/04/01 03:22:44;;;;;;;0.60;0.60;;;12.10;99.90;;;;;;5057106;28;20631;-71
2024/04/01 03:25:10;;;;;;;1.37;0.90;;;12.10;99.90;;;;;;5059862;28;20499;-71
2024/04/01 03:27:35;;;;;;;3.23;0.90;;;12.10;99.90;;;;;;5056797;28;20280;-71
2024/04/01 03:30:01;;;;;;;1.60;1.10;;;12.00;99.90;;;;;;5057658;28;20265;-72
2024/04/01 03:32:27;;;;;;;0.70;0.67;;;12.00;99.90;;;;;;5041044;28;20215;-71
2024/04/01 03:34:53;;;;;;;1.33;1.07;;;12.00;99.90;;;;;;5045859;28;20271;-71
2024/04/01 03:37:19;;;;;;;1.30;1.10;;;11.90;99.90;;;;;;5059863;28;20219;-74
2024/04/01 03:39:46;;;;;;;1.20;1.10;;;11.90;99.90;;;;;;5064201;28;20472;-74
2024/04/01 03:42:15;;;;;;;1.00;1.00;;;11.80;99.90;;;;;;5066100;28;20294;-74
2024/04/01 03:44:41;;;;;;;1.63;1.20;;;11.80;99.90;;;;;;5061620;28;20469;-74
2024/04/01 03:47:07;;;;;;;1.23;1.13;;;11.70;99.90;;;;;;5044991;28;20492;-73
2024/04/01 03:49:33;;;;;;;1.20;1.00;;;11.80;99.90;;;;;;5059291;28;20820;-73
2024/04/01 03:51:59;;;;;;;2.67;1.60;;;11.80;99.90;;;;;;5059921;28;20485;-73
2024/04/01 03:54:24;;;;;;;1.60;1.50;;;11.80;99.90;;;;;;5045398;28;20484;-73
2024/04/01 03:56:50;;;;;;;9.60;5.10;;;11.80;99.90;;;;;;5064188;28;20241;-74
2024/04/01 03:59:16;;;;;;;6.93;5.73;;;11.80;99.90;;;;;;5058702;28;20222;-73
2024/04/01 04:01:44;;;;;;;6.40;4.90;;;11.80;99.90;;;;;;5060176;28;20203;-74
2024/04/01 04:04:14;;;;;;;2.77;2.57;;;11.80;99.90;;;;;;5062801;28;20207;-74
2024/04/01 04:06:40;;;;;;;2.30;2.10;;;11.90;99.90;;;;;;5053792;28;20461;-73
2024/04/01 04:09:19;;;;;;;2.00;1.60;;;11.90;99.90;;;;;;5044486;28;20526;-73
2024/04/01 04:11:50;;;;;;;1.63;1.30;;;11.90;99.90;;;;;;5046477;28;20553;-74
2024/04/01 04:14:20;;;;;;;1.50;1.40;;;11.90;99.90;;;;;;5055061;28;20499;-74
2024/04/01 04:16:47;;;;;;;1.13;1.03;;;12.00;99.90;;;;;;5060114;28;20481;-72
2024/04/01 04:19:16;;;;;;;0.90;0.90;;;11.90;99.90;;;;;;5061714;28;21008;-74
2024/04/01 04:21:42;;;;;;;1.80;1.00;;;12.00;99.90;;;;;;5045326;28;20497;-74
2024/04/01 04:24:10;;;;;;;1.10;1.10;;;12.00;99.90;;;;;;5064660;28;20462;-74
2024/04/01 04:26:36;;;;;;;1.87;1.20;;;12.00;99.90;;;;;;5058618;28;20457;-75
2024/04/01 04:29:02;;;;;;;1.30;1.20;;;12.00;99.90;;;;;;5041626;28;20460;-74
2024/04/01 04:31:28;;;;;;;2.10;1.20;;;12.00;99.90;;;;;;5057003;28;20511;-73
2024/04/01 04:33:54;;;;;;;1.70;1.50;;;12.00;99.90;;;;;;5044155;28;20211;-74
2024/04/01 04:36:23;;;;;;;2.60;1.53;;;12.00;99.90;;;;;;5053634;28;20470;-74
2024/04/01 04:38:49;;;;;;;1.47;1.33;;;12.00;99.90;;;;;;5060241;28;20624;-73
2024/04/01 04:41:17;;;;;;;1.60;1.50;;;12.00;99.90;;;;;;5040688;28;20477;-75
2024/04/01 04:43:44;;;;;;;2.20;1.60;;;12.00;99.90;;;;;;5061690;28;20234;-74
2024/04/01 04:46:13;;;;;;;1.80;1.53;;;12.00;99.90;;;;;;5059142;28;20816;-74
2024/04/01 04:48:43;;;;;;;1.90;1.63;;;12.00;99.90;;;;;;5059685;28;20468;-73
2024/04/01 04:51:09;;;;;;;2.23;1.60;;;11.80;99.90;;;;;;5045333;28;20488;-74
2024/04/01 04:53:38;;;;;;;1.63;1.53;;;11.70;99.90;;;;;;5058720;28;20460;-73
2024/04/01 04:56:05;;;;;;;1.30;1.20;;;11.70;99.90;;;;;;5061525;28;20465;-74
2024/04/01 04:58:33;;;;;;;0.90;0.73;;;11.70;99.90;;;;;;5061971;28;20454;-75
2024/04/01 05:01:05;;;;;;;0.70;0.70;;;11.60;99.90;;;;;;5060797;28;20511;-74
2024/04/01 05:03:34;;;;;;;0.90;0.80;;;11.60;99.90;;;;;;5055155;28;20453;-74
2024/04/01 05:06:01;;;;;;;1.03;0.90;;;11.60;99.90;;;;;;5061530;28;20453;-74
2024/04/01 05:08:27;;;;;;;1.77;1.30;;;11.60;99.90;;;;;;5060722;28;20454;-73
2024/04/01 05:10:53;;;;;;;1.17;0.80;;;11.60;99.90;;;;;;5058244;28;20484;-73
2024/04/01 05:13:19;;;;;;;0.83;0.83;;;11.50;99.90;;;;;;5055322;28;20485;-73
2024/04/01 05:15:45;;;;;;;6.03;1.20;;;11.50;99.90;;;;;;5062604;28;21002;-72
2024/04/01 05:18:10;;;;;;;2.07;1.17;;;11.50;99.90;;;;;;5045740;28;20214;-73
2024/04/01 05:20:36;;;;;;;1.00;1.00;;;11.40;99.90;;;;;;5054248;28;20524;-73
2024/04/01 05:23:02;;;;;;;0.93;0.90;;;11.50;99.90;;;;;;5057553;28;20771;-73
2024/04/01 05:25:28;;;;;;;1.47;1.37;;;11.60;99.90;;;;;;5040857;28;20314;-73
2024/04/01 05:27:54;;;;;;;1.60;1.50;;;11.60;99.90;;;;;;5059269;28;20548;-72
2024/04/01 05:30:23;;;;;;;1.70;1.30;;;11.60;99.90;;;;;;5057926;28;20593;-73
2024/04/01 05:32:49;;;;;;;1.80;1.70;;;11.60;99.90;;;;;;5061096;28;20349;-72
2024/04/01 05:35:16;;;;;;;1.30;1.20;;;11.60;99.90;;;;;;5056777;28;20457;-73
2024/04/01 05:37:43;;;;;;;1.30;1.20;;;11.60;99.90;;;;;;5060388;28;20461;-73
2024/04/01 05:40:10;;;;;;;0.87;0.77;;;11.60;99.90;;;;;;5060676;28;20854;-73
2024/04/01 05:42:35;;;;;;;0.90;0.90;;;11.50;99.90;;;;;;5056876;28;20468;-73
2024/04/01 05:45:01;;;;;;;1.13;0.97;;;11.40;99.90;;;;;;5057828;28;20469;-73
2024/04/01 05:47:26;;;;;;;2.87;0.83;;;11.40;99.90;;;;;;5057580;28;20592;-72
2024/04/01 05:49:53;;;;;;;0.70;0.70;;;11.40;99.90;;;;;;5058207;28;20231;-71
2024/04/01 05:52:18;;;;;;;1.43;1.10;;;11.30;99.90;;;;;;5038940;28;20372;-74
2024/04/01 05:54:44;;;;;;;0.67;0.67;;;11.20;99.90;;;;;;5059961;28;21067;-73
2024/04/01 05:57:09;;;;;;;0.67;0.67;;;11.10;99.90;;;;;;5044456;28;20227;-73
2024/04/01 05:59:35;;;;;;;1.23;0.60;;;11.10;99.90;;;;;;5056688;28;20223;-73
2024/04/01 06:02:01;;;;;;;2.77;0.73;;;11.00;99.90;;;;;;5058883;28;20207;-72
2024/04/01 06:04:27;;;;;;;0.60;0.60;;;11.00;99.90;;;;;;5050110;28;20207;-73
2024/04/01 06:06:52;;;;;;;1.50;0.77;;;10.90;99.90;;;;;;5058251;28;20226;-74
2024/04/01 06:09:18;;;;;;;1.20;1.10;;;10.90;99.90;;;;;;5055821;28;20446;-72
2024/04/01 06:11:44;;;;;;;0.90;0.90;;;10.90;99.90;;;;;;5059618;28;20264;-73
2024/04/01 06:14:11;;;;;;;1.40;0.80;;;10.90;99.90;;;;;;5057274;28;20491;-73
2024/04/01 06:16:37;;;;;;;1.20;1.10;;;10.90;99.90;;;;;;5053355;28;20469;-73
2024/04/01 06:19:04;;;;;;;1.23;1.00;;;10.80;99.90;;;;;;5055094;28;20473;-74
2024/04/01 06:21:30;;;;;;;2.13;1.40;;;10.70;99.90;;;;;;5059488;28;20453;-74
2024/04/01 06:23:57;;;;;;;0.80;0.80;;;10.80;99.90;;;;;;5075193;28;20536;-73
2024/04/01 06:26:23;;;;;;;3.73;1.13;;;10.90;99.90;;;;;;5053665;28;20531;-74
2024/04/01 06:28:50;;;;;;;1.30;1.20;;;10.90;99.90;;;;;;5057526;28;20985;-73
2024/04/01 06:31:16;;;;;;;1.10;1.00;;;10.90;99.90;;;;;;5056817;28;20210;-74
2024/04/01 06:33:42;;;;;;;1.23;1.10;;;10.80;99.90;;;;;;5055881;28;20461;-74
2024/04/01 06:36:07;;;;;;;1.27;1.13;;;10.90;99.90;;;;;;5054396;28;20480;-73
2024/04/01 06:38:33;;;;;;;1.20;1.10;;;11.00;99.90;;;;;;5054752;28;20488;-73
2024/04/01 06:41:00;;;;;;;1.73;1.23;;;11.00;99.90;;;;;;5059327;28;20752;-72
2024/04/01 06:43:25;;;;;;;1.37;1.03;;;10.90;99.90;;;;;;5054413;28;20242;-73
2024/04/01 06:46:00;;;;;;;1.23;0.90;;;10.90;99.90;;;;;;5059461;28;20476;-73
2024/04/01 06:48:26;;;;;;;1.00;0.87;;;11.00;99.90;;;;;;5070381;28;20234;-73
2024/04/01 06:50:52;;;;;;;2.47;1.27;;;11.00;99.90;;;;;;5055570;28;20481;-72
2024/04/01 06:53:18;;;;;;;1.77;1.67;;;10.80;99.90;;;;;;5053030;28;20498;-74
2024/04/01 06:55:44;;;;;;;1.70;1.23;;;10.80;99.90;;;;;;5058175;28;20481;-73
2024/04/01 06:58:11;;;;;;;1.60;1.03;;;10.80;99.90;;;;;;5055468;28;20203;-73
2024/04/01 07:00:37;;;;;;;0.70;0.70;;;10.60;99.90;;;;;;5051044;28;20481;-74
2024/04/01 07:03:03;;;;;;;1.87;0.80;;;10.70;99.90;;;;;;5053753;28;20544;-73
2024/04/01 07:05:29;;;;;;;0.53;0.53;;;10.60;99.90;;;;;;5069289;28;20580;-73
2024/04/01 07:07:55;;;;;;;0.73;0.73;;;10.60;99.90;;;;;;5054494;28;20226;-73
2024/04/01 07:10:21;;;;;;;0.80;0.50;;;10.60;99.90;;;;;;5055568;28;20470;-73
2024/04/01 07:12:47;;;;;;;0.60;0.60;;;10.50;99.90;;;;;;5040372;28;20459;-73
2024/04/01 07:15:13;;;;;;;0.80;0.80;;;10.50;99.90;;;;;;5057103;28;20230;-74
2024/04/01 07:17:39;;;;;;;1.13;0.80;;;10.50;99.90;;;;;;5055751;28;20215;-73
2024/04/01 07:20:08;;;;;;;1.27;1.13;;;10.50;99.90;;;;;;5057299;28;20853;-72
2024/04/01 07:22:33;;;;;;;0.63;0.63;;;10.50;99.90;;;;;;5036399;28;20211;-73
2024/04/01 07:24:59;;;;;;;0.60;0.53;;;10.50;99.90;;;;;;5057051;28;20836;-73
2024/04/01 07:27:25;;;;;;;0.70;0.60;;;10.40;99.90;;;;;;5052908;28;20215;-72
2024/04/01 07:29:51;;;;;;;0.60;0.60;;;10.40;99.90;;;;;;5040623;28;20241;-72
2024/04/01 07:32:17;;;;;;;0.93;0.77;;;10.30;99.90;;;;;;5054597;28;20458;-74
2024/04/01 07:34:42;;;;;;;0.40;0.30;;;10.40;99.90;;;;;;5059032;28;20253;-72
2024/04/01 07:37:08;;;;;;;0.40;0.30;;;10.30;99.90;;;;;;5058343;28;20223;-73
2024/04/01 07:39:34;;;;;;;2.50;0.43;;;10.30;99.90;;;;;;5037349;28;20266;-74
2024/04/01 07:41:59;;;;;;;0.50;0.43;;;10.30;99.90;;;;;;5040479;28;20203;-74
2024/04/01 07:44:25;;;;;;;0.40;0.30;;;10.30;99.90;;;;;;5057058;28;20229;-73
2024/04/01 07:46:51;;;;;;;0.40;0.40;;;10.20;99.90;;;;;;5059800;28;20231;-74
2024/04/01 07:49:16;;;;;;;0.57;0.30;;;10.30;99.90;;;;;;5051832;28;20233;-73
2024/04/01 07:51:42;;;;;;;0.50;0.40;;;10.20;99.90;;;;;;5057536;28;20223;-73
2024/04/01 07:54:08;;;;;;;0.40;0.40;;;10.10;99.90;;;;;;5044194;28;20215;-74
2024/04/01 07:56:34;;;;;;;1.53;0.30;;;10.10;99.90;;;;;;5038050;28;20215;-74
2024/04/01 07:58:59;;;;;;;0.40;0.40;;;10.20;99.90;;;;;;5058143;28;20227;-73
2024/04/01 08:01:25;;;;;;;0.40;0.40;;;10.10;99.90;;;;;;5055877;28;20456;-74
2024/04/01 08:03:50;;;;;;;0.60;0.47;;;10.10;99.90;;;;;;5056622;28;20216;-73
2024/04/01 08:06:16;;;;;;;0.50;0.40;;;10.00;99.90;;;;;;5037976;28;20218;-73
2024/04/01 08:08:42;;;;;;;0.50;0.50;;;10.20;99.90;;;;;;5060518;28;20215;-73
2024/04/01 08:11:07;;;;;;;0.43;0.30;;;10.10;99.90;;;;;;5055836;28;20306;-73
2024/04/01 08:13:33;;;;;;;1.23;0.43;;;10.10;99.90;;;;;;5053990;28;20211;-73
2024/04/01 08:16:03;;;;;;;0.40;0.30;;;10.10;99.90;;;;;;5057995;28;20700;-74
2024/04/01 08:18:29;;;;;;;0.50;0.40;;;10.00;99.90;;;;;;5056624;28;20227;-74
2024/04/01 08:20:57;;;;;;;1.37;0.40;;;10.00;99.90;;;;;;5059887;28;20465;-73
2024/04/01 08:23:23;;;;;;;0.40;0.40;;;10.10;99.90;;;;;;5056864;28;20500;-74
2024/04/01 08:25:49;;;;;;;0.40;0.30;;;10.10;99.90;;;;;;5060312;28;20505;-72
2024/04/01 08:28:15;;;;;;;2.60;0.80;;;10.10;99.90;;;;;;5043716;28;20234;-75
2024/04/01 08:30:40;;;;;;;0.73;0.47;;;10.00;99.90;;;;;;5062192;28;20216;-74
2024/04/01 08:33:06;;;;;;;0.50;0.50;;;10.00;99.90;;;;;;5063250;28;20464;-73
2024/04/01 08:35:32;;;;;;;1.03;0.60;;;10.00;99.90;;;;;;5057541;28;20222;-74
2024/04/01 08:37:58;;;;;;;0.40;0.40;;;10.00;99.90;;;;;;5059965;28;20211;-73
2024/04/01 08:40:24;;;;;;;0.63;0.60;;;10.00;99.90;;;;;;5040329;28;20465;-72
2024/04/01 08:42:55;;;;;;;0.40;0.30;;;10.00;99.90;;;;;;5062817;28;20248;-72
2024/04/01 08:45:21;;;;;;;0.50;0.50;;;10.00;99.90;;;;;;5033558;28;20468;-73
2024/04/01 08:47:54;;;;;;;0.70;0.40;;;10.00;99.90;;;;;;5046258;28;20474;-73
2024/04/01 08:50:35;;;;;;;0.90;0.80;;;10.10;99.90;;;;;;5056699;28;20473;-74
2024/04/01 08:53:11;;;;;;;0.60;0.50;;;10.10;99.90;;;;;;5058630;28;20465;-72
2024/04/01 08:55:37;;;;;;;0.63;0.40;;;10.20;99.90;;;;;;5055724;28;20465;-73
2024/04/01 08:58:04;;;;;;;0.77;0.60;;;10.20;99.90;;;;;;5060487;28;20470;-74
2024/04/01 09:00:30;;;;;;;0.50;0.30;;;10.20;99.90;;;;;;5036435;28;20242;-73
2024/04/01 09:02:56;;;;;;;0.93;0.43;;;10.20;99.90;;;;;;5060745;28;20965;-71
2024/04/01 09:05:21;;;;;;;0.60;0.60;;;10.30;99.90;;;;;;5055027;28;20487;-74
2024/04/01 09:07:49;;;;;;;0.40;0.40;;;10.30;99.90;;;;;;5059218;28;20223;-74
2024/04/01 09:10:22;;;;;;;1.50;0.60;;;10.20;99.90;;;;;;5061550;28;20226;-73
2024/04/01 09:12:53;;;;;;;0.40;0.40;;;10.20;99.90;;;;;;5062312;28;20470;-75
2024/04/01 09:15:21;;;;;;;1.47;0.50;;;10.20;99.90;;;;;;5059509;28;20488;-74
2024/04/01 09:17:46;;;;;;;1.73;1.23;;;10.20;99.90;;;;;;5063458;28;20553;-75
2024/04/01 09:20:12;;;;;;;1.50;1.40;;;10.30;99.90;;;;;;5043929;28;20532;-73
2024/04/01 09:22:38;;;;;;;1.20;0.87;;;10.40;99.90;;;;;;5055457;28;20221;-73
2024/04/01 09:25:04;;;;;;;0.60;0.50;;;10.40;99.90;;;;;;5055711;28;20281;-73
2024/04/01 09:27:30;;;;;;;0.50;0.50;;;10.30;99.90;;;;;;5056502;28;20465;-73
2024/04/01 09:29:55;;;;;;;0.50;0.40;;;10.30;99.90;;;;;;5060498;28;20310;-71
2024/04/01 09:32:21;;;;;;;0.60;0.60;;;10.40;99.90;;;;;;5053386;28;20215;-73
2024/04/01 09:34:57;;;;;;;0.50;0.40;;;10.40;99.90;;;;;;5040759;28;20223;-73
2024/04/01 09:37:23;;;;;;;0.70;0.60;;;10.40;99.90;;;;;;5028167;28;20261;-74
2024/04/01 09:39:52;;;;;;;0.60;0.40;;;10.40;99.90;;;;;;5042354;28;20484;-72
2024/04/01 09:42:18;;;;;;;0.47;0.33;;;10.40;99.90;;;;;;5053157;28;20552;-74
2024/04/01 09:44:44;;;;;;;0.50;0.47;;;10.40;99.90;;;;;;5060977;28;20611;-74
2024/04/01 09:47:09;;;;;;;0.50;0.50;;;10.50;99.90;;;;;;5055220;28;20483;-74
2024/04/01 09:49:37;;;;;;;0.80;0.57;;;10.60;99.90;;;;;;5050098;28;20285;-74
2024/04/01 09:52:05;;;;;;;0.50;0.50;;;10.70;99.90;;;;;;5040663;28;20222;-72
2024/04/01 09:54:30;;;;;;;0.50;0.50;;;10.70;99.90;;;;;;5054038;28;20484;-73
2024/04/01 09:57:23;;;;;;;1.63;0.70;;;10.60;99.90;;;;;;5060197;28;20469;-72
2024/04/01 10:00:14;;;;;;;1.10;0.87;;;10.70;99.90;;;;;;5041493;28;20684;-74
2024/04/01 10:03:19;;;;;;;0.90;0.90;;;10.80;99.90;;;;;;5040825;28;20544;-74
2024/04/01 10:06:08;;;;;;;1.10;1.00;;;10.90;99.90;;;;;;5059925;28;20504;-73
2024/04/01 10:08:42;;;;;;;0.87;0.87;;;10.80;99.90;;;;;;5054117;28;20475;-73
2024/04/01 10:11:44;;;;;;;2.47;1.27;;;10.90;99.90;;;;;;5057065;28;20526;-73
2024/04/01 10:14:21;;;;;;;0.87;0.63;;;11.00;99.90;;;;;;5061886;28;20503;-73
2024/04/01 10:16:59;;;;;;;0.80;0.73;;;11.00;99.90;;;;;;5060254;28;20464;-73
2024/04/01 10:19:41;;;;;;;1.13;0.93;;;11.00;99.90;;;;;;5050754;28;20481;-74
2024/04/01 10:22:31;;;;;;;1.30;1.20;;;11.00;99.90;;;;;;5059224;28;20461;-73
2024/04/01 10:25:21;;;;;;;0.90;0.90;;;10.90;99.90;;;;;;5058779;28;20473;-74
2024/04/01 10:28:06;;;;;;;1.57;1.47;;;10.90;99.90;;;;;;5059146;28;20446;-73
2024/04/01 10:30:58;;;;;;;0.60;0.60;;;10.80;99.90;;;;;;5053038;28;20469;-74
2024/04/01 10:33:46;;;;;;;0.90;0.90;;;10.80;99.90;;;;;;5056655;28;20454;-74
2024/04/01 10:36:17;;;;;;;1.10;1.00;;;10.80;99.90;;;;;;5059160;28;20575;-73
2024/04/01 10:39:05;;;;;;;0.90;0.90;;;10.80;99.90;;;;;;5040667;28;20951;-73
2024/04/01 10:41:58;;;;;;;0.80;0.80;;;10.80;99.90;;;;;;5040090;28;20446;-74
2024/04/01 10:44:53;;;;;;;1.03;1.00;;;10.80;99.90;;;;;;5033183;28;20457;-74
2024/04/01 10:47:19;;;;;;;1.00;1.00;;;10.80;99.90;;;;;;5055960;28;20460;-73
2024/04/01 10:50:15;;;;;;;0.90;0.90;;;10.90;99.90;;;;;;5060308;28;20465;-72
2024/04/01 10:52:52;;;;;;;1.00;1.00;;;10.90;99.90;;;;;;5054995;28;20219;-73
2024/04/01 10:55:56;;;;;;;1.60;0.93;;;10.90;99.90;;;;;;5052064;28;20461;-73
2024/04/01 10:58:49;;;;;;;0.80;0.80;;;10.90;99.90;;;;;;5060438;28;20461;-73
2024/04/01 11:01:39;;;;;;;0.93;0.93;;;10.80;99.90;;;;;;5060192;28;20464;-73
2024/04/01 11:04:20;;;;;;;0.90;0.90;;;10.80;99.90;;;;;;5059440;28;20540;-72
2024/04/01 11:07:20;;;;;;;1.00;0.80;;;10.70;99.90;;;;;;5059738;28;20464;-73
2024/04/01 11:10:25;;;;;;;0.90;0.90;;;10.70;99.90;;;;;;5059052;28;20458;-73
2024/04/01 11:13:18;;;;;;;2.97;1.00;;;10.70;99.90;;;;;;5036155;28;20536;-71
2024/04/01 11:15:44;;;;;;;0.90;0.57;;;10.60;99.90;;;;;;5055775;28;20619;-73
2024/04/01 11:18:45;;;;;;;0.40;0.40;;;10.60;99.90;;;;;;5057658;28;20460;-72
2024/04/01 11:21:27;;;;;;;0.57;0.57;;;10.60;99.90;;;;;;5057066;28;20531;-72
2024/04/01 11:24:11;;;;;;;0.40;0.40;;;10.50;99.90;;;;;;5058579;28;20469;-73
2024/04/01 11:27:01;;;;;;;0.43;0.43;;;10.50;99.90;;;;;;5053332;28;20485;-72
2024/04/01 11:30:05;;;;;;;0.80;0.80;;;10.50;99.90;;;;;;5054468;28;20461;-72
2024/04/01 11:32:36;;;;;;;1.00;1.00;;;10.40;99.90;;;;;;5055581;28;20566;-72
2024/04/01 11:35:12;;;;;;;1.83;1.20;;;10.50;99.90;;;;;;5057849;28;20449;-71
2024/04/01 11:37:49;;;;;;;0.67;0.67;;;10.30;99.90;;;;;;5053531;28;20459;-72
2024/04/01 11:40:20;;;;;;;0.43;0.43;;;10.40;99.90;;;;;;5058883;28;20465;-71
2024/04/01 11:42:52;;;;;;;0.50;0.50;;;10.20;99.90;;;;;;5034919;28;20454;-72
2024/04/01 11:45:20;;;;;;;0.70;0.70;;;10.30;99.90;;;;;;5052486;28;20469;-73
2024/04/01 11:47:47;;;;;;;0.60;0.60;;;10.30;99.90;;;;;;5059352;28;20445;-71
2024/04/01 11:50:19;;;;;;;1.27;0.80;;;10.20;99.90;;;;;;5056293;28;20550;-72
2024/04/01 11:52:56;;;;;;;1.80;0.77;;;10.30;99.90;;;;;;5062778;28;20457;-70
2024/04/01 11:55:23;;;;;;;0.80;0.70;;;10.30;99.90;;;;;;5048998;28;20465;-72
2024/04/01 11:57:50;;;;;;;0.77;0.77;;;10.30;99.90;;;;;;5060117;28;20981;-72
2024/04/01 12:00:16;;;;;;;1.03;0.80;;;10.30;99.90;;;;;;5060030;28;20470;-72
2024/04/01 12:02:55;;;;;;;0.97;0.87;;;10.30;99.90;;;;;;5060080;28;20658;-72
2024/04/01 12:05:21;;;;;;;1.57;1.10;;;10.30;99.90;;;;;;5057166;28;20293;-72
2024/04/01 12:07:50;;;;;;;0.80;0.80;;;10.30;99.90;;;;;;5044836;28;20472;-72
2024/04/01 12:10:18;;;;;;;1.10;0.70;;;10.30;99.90;;;;;;5058127;28;20279;-72
2024/04/01 12:12:47;;;;;;;1.57;0.90;;;10.40;99.90;;;;;;5063659;28;20469;-72
2024/04/01 12:15:21;;;;;;;2.37;0.60;;;10.30;99.90;;;;;;5061854;28;20473;-73
2024/04/01 12:17:49;;;;;;;1.07;0.77;;;10.20;99.90;;;;;;5061876;28;20461;-72
2024/04/01 12:20:15;;;;;;;0.60;0.60;;;10.00;99.90;;;;;;5060313;28;20484;-73
2024/04/01 12:22:41;;;;;;;0.80;0.77;;;10.00;99.90;;;;;;5058984;28;20468;-72
2024/04/01 12:25:10;;;;;;;0.67;0.67;;;10.00;99.90;;;;;;5045726;28;20577;-72
2024/04/01 12:27:37;;;;;;;0.50;0.50;;;10.00;99.90;;;;;;5057601;28;20558;-73
2024/04/01 12:30:07;;;;;;;0.70;0.67;;;9.90;99.90;;;;;;5061200;28;20468;-72
2024/04/01 12:32:42;;;;;;;0.80;0.67;;;9.90;99.90;;;;;;5057495;28;20497;-71
2024/04/01 12:35:14;;;;;;;1.00;0.87;;;9.90;99.90;;;;;;5045538;28;20456;-72
2024/04/01 12:37:43;;;;;;;4.67;1.70;;;9.90;99.90;;;;;;5041724;28;20461;-73
2024/04/01 12:40:09;;;;;;;3.70;2.60;;;9.90;99.90;;;;;;5058813;28;20479;-72
2024/04/01 12:42:36;;;;;;;1.47;1.23;;;9.90;99.90;;;;;;5040537;28;20773;-73
2024/04/01 12:45:05;;;;;;;4.00;1.67;;;9.90;99.90;;;;;;5060705;28;20453;-73
2024/04/01 12:47:33;;;;;;;1.30;1.00;;;9.90;99.90;;;;;;5056276;28;20557;-72
2024/04/01 12:50:06;;;;;;;1.13;0.73;;;9.90;99.90;;;;;;5058095;28;20477;-72
2024/04/01 12:53:04;;;;;;;0.80;0.77;;;9.80;99.90;;;;;;5053007;28;20469;-73
2024/04/01 12:55:32;;;;;;;1.13;0.70;;;9.90;99.90;;;;;;5049276;28;20470;-72
2024/04/01 12:58:28;;;;;;;1.70;0.87;;;9.90;99.90;;;;;;5062107;28;20571;-72